^^
Station Historical Data
Daily Summary for March 8, 2017 Units:  English    Metric   Both
« Previous Day
Next Day »
Daily Weekly Monthly Yearly Custom
  High: Low: Average:
Temperature: 57.7 °F 45.8 °F 52.4 °F
Dew Point: 50.4 °F 22.2 °F 34.1 °F
Humidity: 91% 28% 55%
Wind Speed: 12.0mph 0.0mph 4.4mph
Wind Gust: 31.0mph - -
Wind- - SW
Pressure: 30.03 in 29.89 in -
Precipitation: 0.05 in    
Historical Graphs
 
 
Tabular Data for March 8, 2017
Time Temperature Dew Point Pressure Wind Wind Speed Wind Gust Humidity Rainfall Rate (Hourly) Conditions
00:00 50.6 °F 46.8 °F 30.02 in SSW 2.0 mph 6.0 mph 87% 0.00 in RA
00:15 50.2 °F 46.1 °F 30.01 in Calm   3.0 mph 86% 0.00 in OVC
00:30 49.9 °F 46.5 °F 30.00 in South 1.0 mph 4.0 mph 88% 0.00 in OVC
00:45 49.7 °F 46.6 °F 30.00 in South 1.0 mph 5.0 mph 89% 0.00 in OVC
01:00 49.6 °F 46.5 °F 29.99 in South 1.0 mph 5.0 mph 89% 0.00 in OVC
02:15 50.8 °F 47.4 °F 29.96 in SSE 1.0 mph 7.0 mph 88% 0.00 in -RA
02:30 50.9 °F 47.5 °F 29.94 in SSE 1.0 mph 5.0 mph 88% 0.00 in -RA
02:45 51.0 °F 47.6 °F 29.93 in Calm   7.0 mph 88% 0.00 in -RA
03:00 51.1 °F 47.4 °F 29.92 in SSE 2.0 mph 8.0 mph 87% 0.00 in -RA
03:15 51.0 °F 47.3 °F 29.92 in South 1.0 mph 5.0 mph 87% 0.00 in OVC
03:30 50.8 °F 47.4 °F 29.91 in South 1.0 mph 5.0 mph 88% 0.00 in OVC
03:45 50.6 °F 47.5 °F 29.91 in SSW 1.0 mph 6.0 mph 89% 0.00 in OVC
04:00 50.8 °F 48.0 °F 29.91 in South 3.0 mph 6.0 mph 90% 0.00 in OVC
04:15 51.2 °F 48.1 °F 29.90 in SSE 2.0 mph 7.0 mph 89% 0.00 in OVC
04:30 51.6 °F 48.8 °F 29.89 in SSW 5.0 mph 12.0 mph 90% 0.00 in OVC
04:45 52.1 °F 49.0 °F 29.89 in South 2.0 mph 8.0 mph 89% 0.00 in OVC
05:00 52.1 °F 49.3 °F 29.89 in SSW 3.0 mph 10.0 mph 90% 0.01 in OVC
05:15 52.4 °F 49.9 °F 29.89 in SSW 6.0 mph 12.0 mph 91% 0.00 in -RA
05:30 53.0 °F 50.4 °F 29.90 in South 3.0 mph 9.0 mph 91% 0.00 in -RA
05:45 51.4 °F 46.8 °F 29.96 in WSW 6.0 mph 16.0 mph 84% 0.02 in -RA
06:00 46.9 °F 43.0 °F 29.97 in East 3.0 mph 15.0 mph 86% 0.02 in -RA
06:15 46.4 °F 41.5 °F 29.98 in NW 6.0 mph 12.0 mph 83% 0.00 in -RA
06:30 46.4 °F 40.2 °F 30.00 in NNE 2.0 mph 12.0 mph 79% 0.00 in -RA
06:45 46.4 °F 39.9 °F 30.00 in North 2.0 mph 16.0 mph 78% 0.00 in -RA
07:00 46.1 °F 39.6 °F 30.00 in SSE 2.0 mph 8.0 mph 78% 0.00 in -RA
07:15 46.2 °F 39.0 °F 29.99 in NNW 1.0 mph 9.0 mph 76% 0.00 in BKN
07:30 45.9 °F 39.1 °F 29.97 in NNW 2.0 mph 10.0 mph 77% 0.00 in BKN
07:45 45.8 °F 38.7 °F 29.97 in North 2.0 mph 7.0 mph 76% 0.00 in BKN
08:00 45.9 °F 38.4 °F 29.96 in West 1.0 mph 6.0 mph 75% 0.00 in BKN
08:15 45.8 °F 38.7 °F 29.99 in Calm   4.0 mph 76% 0.00 in BKN
08:30 46.1 °F 38.3 °F 30.01 in SW 7.0 mph 14.0 mph 74% 0.00 in BKN
08:45 45.8 °F 38.3 °F 30.02 in SW 5.0 mph 12.0 mph 75% 0.00 in BKN
09:00 45.8 °F 38.0 °F 30.03 in WSW 5.0 mph 15.0 mph 74% 0.00 in BKN
09:15 45.9 °F 37.7 °F 30.03 in SW 3.0 mph 10.0 mph 73% 0.00 in BKN
09:30 46.2 °F 37.3 °F 30.03 in SSW 3.0 mph 12.0 mph 71% 0.00 in BKN
09:45 47.7 °F 38.0 °F 30.03 in SW 2.0 mph 10.0 mph 69% 0.00 in BKN
10:00 48.3 °F 37.1 °F 30.02 in WSW 2.0 mph 12.0 mph 65% 0.00 in BKN
10:15 48.9 °F 36.1 °F 30.03 in WNW 1.0 mph 13.0 mph 61% 0.00 in BKN
10:30 48.3 °F 35.0 °F 30.03 in South 3.0 mph 14.0 mph 60% 0.00 in BKN
10:45 49.3 °F 35.6 °F 30.03 in WSW 7.0 mph 14.0 mph 59% 0.00 in BKN
11:00 50.4 °F 36.2 °F 30.03 in WSW 3.0 mph 17.0 mph 58% 0.00 in BKN
11:15 51.4 °F 34.3 °F 30.02 in NW 2.0 mph 12.0 mph 52% 0.00 in SCT
11:30 51.3 °F 32.3 °F 30.02 in West 2.0 mph 14.0 mph 48% 0.00 in SCT
11:45 52.3 °F 31.6 °F 30.02 in West 5.0 mph 15.0 mph 45% 0.00 in SCT
12:00 52.7 °F 30.2 °F 30.01 in WSW 8.0 mph 13.0 mph 42% 0.00 in SCT
12:15 53.7 °F 30.5 °F 30.00 in WSW 3.0 mph 12.0 mph 41% 0.00 in FEW
12:30 54.5 °F 30.0 °F 29.99 in WSW 5.0 mph 14.0 mph 39% 0.00 in FEW
12:45 55.2 °F 27.2 °F 29.98 in SW 3.0 mph 12.0 mph 34% 0.00 in FEW
13:00 55.8 °F 23.1 °F 29.96 in SSW 5.0 mph 14.0 mph 28% 0.00 in FEW
13:30 55.9 °F 24.1 °F 29.95 in WSW 5.0 mph 13.0 mph 29% 0.00 in FEW
13:45 56.9 °F 24.9 °F 29.94 in WSW 8.0 mph 16.0 mph 29% 0.00 in FEW
14:00 57.0 °F 26.6 °F 29.94 in SSW 5.0 mph 17.0 mph 31% 0.00 in FEW
14:15 56.8 °F 25.7 °F 29.93 in SW 6.0 mph 16.0 mph 30% 0.00 in FEW
14:30 56.9 °F 26.5 °F 29.93 in WSW 7.0 mph 22.0 mph 31% 0.00 in FEW
14:45 57.7 °F 26.4 °F 29.92 in WSW 8.0 mph 18.0 mph 30% 0.00 in FEW
15:00 57.0 °F 25.8 °F 29.93 in WSW 6.0 mph 18.0 mph 30% 0.00 in FEW
15:15 56.2 °F 25.9 °F 29.92 in SW 6.0 mph 15.0 mph 31% 0.00 in FEW
15:30 56.5 °F 27.0 °F 29.91 in WSW 5.0 mph 14.0 mph 32% 0.00 in FEW
15:45 56.2 °F 27.4 °F 29.92 in SW 7.0 mph 21.0 mph 33% 0.00 in FEW
16:00 56.4 °F 27.6 °F 29.91 in SW 7.0 mph 17.0 mph 33% 0.00 in FEW
16:15 56.9 °F 27.4 °F 29.91 in SSW 8.0 mph 20.0 mph 32% 0.00 in SCT
16:30 56.7 °F 27.9 °F 29.91 in SSW 3.0 mph 15.0 mph 33% 0.00 in SCT
16:45 57.3 °F 27.7 °F 29.90 in SW 10.0 mph 20.0 mph 32% 0.00 in SCT
17:00 57.3 °F 26.9 °F 29.90 in SW 12.0 mph 31.0 mph 31% 0.00 in SCT
17:15 57.2 °F 27.6 °F 29.89 in SSW 8.0 mph 20.0 mph 32% 0.00 in FEW
17:30 57.1 °F 27.5 °F 29.89 in SSW 6.0 mph 20.0 mph 32% 0.00 in FEW
17:45 56.4 °F 27.6 °F 29.89 in SW 5.0 mph 18.0 mph 33% 0.00 in FEW
18:00 55.8 °F 27.1 °F 29.89 in SW 7.0 mph 17.0 mph 33% 0.00 in FEW
18:15 55.5 °F 27.6 °F 29.89 in SW 7.0 mph 14.0 mph 34% 0.00 in CLR
18:30 55.4 °F 27.4 °F 29.89 in SSW 5.0 mph 12.0 mph 34% 0.00 in CLR
18:45 55.0 °F 27.8 °F 29.89 in SSW 7.0 mph 13.0 mph 35% 0.00 in CLR
19:00 55.0 °F 27.8 °F 29.89 in SSW 5.0 mph 13.0 mph 35% 0.00 in CLR
19:15 55.3 °F 27.4 °F 29.89 in SW 6.0 mph 13.0 mph 34% 0.00 in CLR
19:30 55.1 °F 27.2 °F 29.89 in SSW 5.0 mph 13.0 mph 34% 0.00 in CLR
19:45 55.0 °F 27.1 °F 29.89 in SSW 5.0 mph 12.0 mph 34% 0.00 in CLR
20:00 54.9 °F 27.0 °F 29.90 in SW 6.0 mph 13.0 mph 34% 0.00 in CLR
20:15 54.6 °F 26.8 °F 29.90 in SSW 5.0 mph 9.0 mph 34% 0.00 in CLR
20:30 54.7 °F 26.8 °F 29.90 in SW 6.0 mph 14.0 mph 34% 0.00 in CLR
20:45 54.9 °F 26.3 °F 29.90 in South 3.0 mph 15.0 mph 33% 0.00 in CLR
21:15 54.3 °F 26.5 °F 29.91 in SW 2.0 mph 13.0 mph 34% 0.00 in CLR
21:30 54.2 °F 25.7 °F 29.91 in SW 3.0 mph 12.0 mph 33% 0.00 in CLR
21:45 54.0 °F 25.5 °F 29.91 in SW 5.0 mph 12.0 mph 33% 0.00 in CLR
22:00 54.4 °F 25.1 °F 29.91 in SW 7.0 mph 18.0 mph 32% 0.00 in CLR
22:15 54.3 °F 24.3 °F 29.91 in SSW 9.0 mph 20.0 mph 31% 0.00 in CLR
22:30 54.3 °F 25.1 °F 29.91 in South 8.0 mph 17.0 mph 32% 0.00 in CLR
22:45 54.6 °F 23.7 °F 29.91 in SW 6.0 mph 20.0 mph 30% 0.00 in CLR
23:00 54.9 °F 22.4 °F 29.90 in SW 7.0 mph 22.0 mph 28% 0.00 in CLR
23:15 54.7 °F 22.2 °F 29.90 in SW 7.0 mph 20.0 mph 28% 0.00 in CLR
23:30 54.8 °F 22.2 °F 29.90 in SW 8.0 mph 24.0 mph 28% 0.00 in CLR
23:45 54.5 °F 22.9 °F 29.90 in SW 7.0 mph 21.0 mph 29% 0.00 in CLR
TarryTown NY Weather
Compliments of Weather Underground - 1.5 mb